createdAt,value
2022-08-25T00:01:33.294Z,17.10
2022-08-25T00:04:03.508Z,17.10
2022-08-25T00:06:32.131Z,17.00
2022-08-25T00:09:01.767Z,17.00
2022-08-25T00:11:34.141Z,16.90
2022-08-25T00:14:05.964Z,16.90
2022-08-25T00:16:34.867Z,16.90
2022-08-25T00:19:07.232Z,16.80
2022-08-25T00:21:35.786Z,16.80
2022-08-25T00:24:05.841Z,16.80
2022-08-25T00:26:34.151Z,16.80
2022-08-25T00:29:02.417Z,16.80
2022-08-25T00:31:38.128Z,16.80
2022-08-25T00:34:11.190Z,16.80
2022-08-25T00:36:40.136Z,16.80
2022-08-25T00:39:10.821Z,16.70
2022-08-25T00:41:41.243Z,16.70
2022-08-25T00:44:11.356Z,16.70
2022-08-25T00:46:43.427Z,16.70
2022-08-25T00:49:24.599Z,16.70
2022-08-25T00:51:58.653Z,16.70
2022-08-25T00:54:30.147Z,16.70
2022-08-25T00:57:00.712Z,16.60
2022-08-25T00:59:29.817Z,16.60
2022-08-25T01:01:58.999Z,16.60
2022-08-25T01:04:27.879Z,16.50
2022-08-25T01:06:57.225Z,16.50
2022-08-25T01:09:27.205Z,16.40
2022-08-25T01:11:55.928Z,16.40
2022-08-25T01:14:26.451Z,16.40
2022-08-25T01:16:55.045Z,16.40
2022-08-25T01:19:23.356Z,16.40
2022-08-25T01:21:54.733Z,16.40
2022-08-25T01:24:29.611Z,16.50
2022-08-25T01:26:58.246Z,16.40
2022-08-25T01:29:26.593Z,16.40
2022-08-25T01:31:58.417Z,16.40
2022-08-25T01:34:28.326Z,16.40
2022-08-25T01:36:59.617Z,16.30
2022-08-25T01:39:30.152Z,16.30
2022-08-25T01:42:18.864Z,16.20
2022-08-25T01:44:48.979Z,16.20
2022-08-25T01:47:17.817Z,16.10
2022-08-25T01:49:46.566Z,16.10
2022-08-25T01:52:20.483Z,16.10
2022-08-25T01:54:49.913Z,16.10
2022-08-25T01:57:18.677Z,16.20
2022-08-25T01:59:47.582Z,16.10
2022-08-25T02:02:18.330Z,16.10
2022-08-25T02:04:48.664Z,16.10
2022-08-25T02:07:21.306Z,16.10
2022-08-25T02:09:49.575Z,16.00
2022-08-25T02:12:17.806Z,16.10
2022-08-25T02:14:48.086Z,16.00
2022-08-25T02:17:17.317Z,16.00
2022-08-25T02:19:45.625Z,15.90
2022-08-25T02:22:13.905Z,15.90
2022-08-25T02:24:43.604Z,15.90
2022-08-25T02:27:12.122Z,15.80
2022-08-25T02:29:40.388Z,15.80
2022-08-25T02:32:10.171Z,15.80
2022-08-25T02:34:41.143Z,15.80
2022-08-25T02:37:09.421Z,15.80
2022-08-25T02:39:37.662Z,15.90
2022-08-25T02:42:07.595Z,15.90
2022-08-25T02:44:35.827Z,15.90
2022-08-25T02:47:04.313Z,15.90
2022-08-25T02:49:33.055Z,15.90
2022-08-25T02:52:01.338Z,15.90
2022-08-25T02:54:29.898Z,15.80
2022-08-25T02:56:58.224Z,15.80
2022-08-25T02:59:28.238Z,15.80
2022-08-25T03:01:57.062Z,15.80
2022-08-25T03:04:25.367Z,15.70
2022-08-25T03:06:53.865Z,15.70
2022-08-25T03:09:23.066Z,15.70
2022-08-25T03:11:51.293Z,15.70
2022-08-25T03:14:19.897Z,15.80
2022-08-25T03:16:49.673Z,15.80
2022-08-25T03:19:19.409Z,15.80
2022-08-25T03:21:47.657Z,15.70
2022-08-25T03:24:15.896Z,15.70
2022-08-25T03:26:55.963Z,15.60
2022-08-25T03:29:25.985Z,15.60
2022-08-25T03:31:58.183Z,15.60
2022-08-25T03:34:28.898Z,15.50
2022-08-25T03:36:58.518Z,15.50
2022-08-25T03:39:27.622Z,15.40
2022-08-25T03:41:56.023Z,15.40
2022-08-25T03:44:24.346Z,15.40
2022-08-25T03:46:53.787Z,15.40
2022-08-25T03:49:24.570Z,15.30
2022-08-25T03:51:55.165Z,15.30
2022-08-25T03:54:26.985Z,15.30
2022-08-25T03:56:55.621Z,15.20
2022-08-25T03:59:23.960Z,15.30
2022-08-25T04:01:55.092Z,15.20
2022-08-25T04:04:25.635Z,15.20
2022-08-25T04:06:54.154Z,15.20
2022-08-25T04:09:23.274Z,15.10
2022-08-25T04:11:53.423Z,15.10
2022-08-25T04:14:23.847Z,15.10
2022-08-25T04:16:53.096Z,15.10
2022-08-25T04:19:22.190Z,15.10
2022-08-25T04:21:56.518Z,15.00
2022-08-25T04:24:25.552Z,15.00
2022-08-25T04:26:53.883Z,15.00
2022-08-25T04:29:24.043Z,15.00
2022-08-25T04:31:53.469Z,15.00
2022-08-25T04:34:29.531Z,15.00
2022-08-25T04:37:03.096Z,15.00
2022-08-25T04:39:32.322Z,15.00
2022-08-25T04:42:01.188Z,15.10
2022-08-25T04:44:30.678Z,15.10
2022-08-25T04:46:59.628Z,15.10
2022-08-25T04:49:28.785Z,15.20
2022-08-25T04:51:57.784Z,15.20
2022-08-25T04:54:28.285Z,15.30
2022-08-25T04:56:58.302Z,15.30
2022-08-25T04:59:30.164Z,15.30
2022-08-25T05:02:02.227Z,15.40
2022-08-25T05:04:31.516Z,15.50
2022-08-25T05:07:00.343Z,15.50
2022-08-25T05:09:32.099Z,15.70
2022-08-25T05:12:00.568Z,15.80
2022-08-25T05:14:28.879Z,15.80
2022-08-25T05:16:58.140Z,16.00
2022-08-25T05:19:26.809Z,16.00
2022-08-25T05:21:58.026Z,16.20
2022-08-25T05:24:27.918Z,16.30
2022-08-25T05:26:58.357Z,16.50
2022-08-25T05:29:26.992Z,16.70
2022-08-25T05:31:55.430Z,16.90
2022-08-25T05:34:24.831Z,17.10
2022-08-25T05:36:53.079Z,17.30
2022-08-25T05:39:21.351Z,17.40
2022-08-25T05:41:49.569Z,17.50
2022-08-25T05:44:21.323Z,17.60
2022-08-25T05:46:51.211Z,17.60
2022-08-25T05:49:19.851Z,17.80
2022-08-25T05:51:48.272Z,17.90
2022-08-25T05:54:16.613Z,18.00
2022-08-25T05:56:45.401Z,18.10
2022-08-25T05:59:13.916Z,18.30
2022-08-25T06:02:00.995Z,18.40
2022-08-25T06:04:29.275Z,18.60
2022-08-25T06:06:57.573Z,18.80
2022-08-25T06:09:26.414Z,19.00
2022-08-25T06:11:55.532Z,19.20
2022-08-25T06:14:25.293Z,19.30
2022-08-25T06:16:55.223Z,19.50
2022-08-25T06:19:23.993Z,19.70
2022-08-25T06:21:55.600Z,19.90
2022-08-25T06:24:24.497Z,20.00
2022-08-25T06:26:53.028Z,20.20
2022-08-25T06:29:21.589Z,20.30
2022-08-25T06:31:50.960Z,20.40
2022-08-25T06:34:23.793Z,20.50
2022-08-25T06:36:52.874Z,20.60
2022-08-25T06:39:21.150Z,20.70
2022-08-25T06:41:52.860Z,20.80
2022-08-25T06:44:21.282Z,20.90
2022-08-25T06:46:49.813Z,20.80
2022-08-25T06:49:18.451Z,20.80
2022-08-25T06:51:48.343Z,20.80
2022-08-25T06:54:16.824Z,20.70
2022-08-25T06:56:45.037Z,20.80
2022-08-25T06:59:13.318Z,20.80
2022-08-25T07:01:41.670Z,20.90
2022-08-25T07:04:13.283Z,20.90
2022-08-25T07:06:41.909Z,21.00
2022-08-25T07:09:13.377Z,21.00
2022-08-25T07:11:42.131Z,21.10
2022-08-25T07:14:12.760Z,21.10
2022-08-25T07:16:45.998Z,21.20
2022-08-25T07:19:20.620Z,21.20
2022-08-25T07:21:51.792Z,21.40
2022-08-25T07:24:22.674Z,21.40
2022-08-25T07:26:51.597Z,21.60
2022-08-25T07:29:31.986Z,21.70
2022-08-25T07:32:01.874Z,21.90
2022-08-25T07:34:52.049Z,22.00
2022-08-25T07:37:48.077Z,22.20
2022-08-25T07:40:15.919Z,22.30
2022-08-25T07:42:44.193Z,22.40
2022-08-25T07:45:13.819Z,22.50
2022-08-25T07:47:43.972Z,22.60
2022-08-25T07:50:14.632Z,22.70
2022-08-25T07:52:43.004Z,22.90
2022-08-25T07:55:13.101Z,23.10
2022-08-25T07:57:48.938Z,23.10
2022-08-25T08:00:24.660Z,23.30
2022-08-25T08:02:52.987Z,23.40
2022-08-25T08:05:23.857Z,23.50
2022-08-25T08:07:52.542Z,23.60
2022-08-25T08:10:48.111Z,23.70
2022-08-25T08:13:13.478Z,23.70
2022-08-25T08:15:46.625Z,23.80
2022-08-25T08:18:15.710Z,23.90
2022-08-25T08:20:45.902Z,24.00
2022-08-25T08:23:15.117Z,24.10
2022-08-25T08:25:44.865Z,24.20
2022-08-25T08:28:13.078Z,24.40
2022-08-25T08:30:53.423Z,24.50
2022-08-25T08:33:24.479Z,24.60
2022-08-25T08:35:59.156Z,24.80
2022-08-25T08:38:28.950Z,24.90
2022-08-25T08:41:27.390Z,24.90
2022-08-25T08:44:02.499Z,25.00
2022-08-25T08:46:38.854Z,25.10
2022-08-25T08:49:12.659Z,25.20
2022-08-25T08:51:48.954Z,25.30
2022-08-25T08:54:22.998Z,25.50
2022-08-25T08:57:03.678Z,25.60
2022-08-25T08:59:41.853Z,25.70
2022-08-25T09:02:38.513Z,25.90
2022-08-25T09:05:12.102Z,26.10
2022-08-25T09:07:47.707Z,26.20
2022-08-25T09:10:17.082Z,26.30
2022-08-25T09:16:04.631Z,26.50
2022-08-25T09:18:50.721Z,26.60
2022-08-25T09:21:29.213Z,26.70
2022-08-25T09:24:18.614Z,26.60
2022-08-25T09:26:55.092Z,26.70
2022-08-25T09:29:31.951Z,26.90
2022-08-25T09:32:03.181Z,27.20
2022-08-25T09:34:35.018Z,27.50
2022-08-25T09:37:03.359Z,27.80
2022-08-25T09:39:32.989Z,28.00
2022-08-25T09:42:01.445Z,28.20
2022-08-25T09:44:34.363Z,28.30
2022-08-25T09:47:28.553Z,28.50
2022-08-25T09:50:00.984Z,28.80
2022-08-25T09:52:35.836Z,28.80
2022-08-25T09:55:32.435Z,28.80
2022-08-25T09:58:01.032Z,28.70
2022-08-25T10:01:20.704Z,28.60
2022-08-25T10:04:01.522Z,28.60
2022-08-25T10:06:37.616Z,28.70
2022-08-25T10:09:08.175Z,29.00
2022-08-25T10:11:43.514Z,29.30
2022-08-25T10:14:23.121Z,29.40
2022-08-25T10:16:54.507Z,29.50
2022-08-25T10:19:30.295Z,29.70
2022-08-25T10:23:15.047Z,30.00
2022-08-25T10:25:57.947Z,30.00
2022-08-25T10:28:44.105Z,29.70
2022-08-25T10:31:20.041Z,29.50
2022-08-25T10:34:03.467Z,29.60
2022-08-25T10:36:47.163Z,29.90
2022-08-25T10:39:36.300Z,30.30
2022-08-25T10:42:18.436Z,30.40
2022-08-25T10:45:27.978Z,30.40
2022-08-25T10:48:13.081Z,30.50
2022-08-25T10:50:45.293Z,30.60
2022-08-25T10:53:27.857Z,30.50
2022-08-25T10:56:08.825Z,30.40
2022-08-25T10:59:17.360Z,30.10
2022-08-25T11:01:59.061Z,29.90
2022-08-25T11:04:33.873Z,29.70
2022-08-25T11:07:10.944Z,29.50
2022-08-25T11:09:44.177Z,29.50
2022-08-25T11:12:17.468Z,29.50
2022-08-25T11:14:53.044Z,29.60
2022-08-25T11:17:25.913Z,29.80
2022-08-25T11:20:06.105Z,29.80
2022-08-25T11:22:42.337Z,29.80
2022-08-25T11:25:18.525Z,30.00
2022-08-25T11:27:53.414Z,30.30
2022-08-25T11:30:22.480Z,30.50
2022-08-25T11:32:55.837Z,30.60
2022-08-25T11:35:29.920Z,30.60
2022-08-25T11:38:35.300Z,30.50
2022-08-25T11:41:18.891Z,30.20
2022-08-25T11:44:23.658Z,30.00
2022-08-25T11:47:13.155Z,30.00
2022-08-25T11:49:56.882Z,30.10
2022-08-25T11:52:49.142Z,30.10
2022-08-25T11:55:23.388Z,30.20
2022-08-25T11:58:14.165Z,30.10
2022-08-25T12:00:46.005Z,30.10
2022-08-25T12:03:53.167Z,30.10
2022-08-25T12:07:16.743Z,30.10
2022-08-25T12:10:10.214Z,30.00
2022-08-25T12:12:57.726Z,30.10
2022-08-25T12:15:34.746Z,30.10
2022-08-25T12:18:12.864Z,30.10
2022-08-25T12:21:30.545Z,30.20
2022-08-25T12:24:11.203Z,30.40
2022-08-25T12:26:49.260Z,30.70
2022-08-25T12:29:28.297Z,31.00
2022-08-25T12:32:20.541Z,31.20
2022-08-25T12:35:10.183Z,31.40
2022-08-25T12:38:01.087Z,31.70
2022-08-25T12:40:34.672Z,31.90
2022-08-25T12:43:07.682Z,32.00
2022-08-25T12:45:42.544Z,32.20
2022-08-25T12:48:44.174Z,32.40
2022-08-25T12:51:20.021Z,32.50
2022-08-25T12:53:52.429Z,32.50
2022-08-25T12:56:28.689Z,32.20
2022-08-25T12:59:12.851Z,32.00
2022-08-25T13:01:58.647Z,31.80
2022-08-25T13:05:06.796Z,31.60
2022-08-25T13:07:56.663Z,31.60
2022-08-25T13:10:47.241Z,31.50
2022-08-25T13:13:24.098Z,31.40
2022-08-25T13:16:01.149Z,31.30
2022-08-25T13:18:32.575Z,31.40
2022-08-25T13:21:09.268Z,31.30
2022-08-25T13:23:43.175Z,31.50
2022-08-25T13:26:16.370Z,31.50
2022-08-25T13:28:54.828Z,31.50
2022-08-25T13:31:28.029Z,31.50
2022-08-25T13:33:59.125Z,31.40
2022-08-25T13:36:52.004Z,31.20
2022-08-25T13:39:45.637Z,31.30
2022-08-25T13:42:17.436Z,31.40
2022-08-25T13:44:51.654Z,31.40
2022-08-25T13:47:43.794Z,31.30
2022-08-25T13:50:20.201Z,31.20
2022-08-25T13:52:50.882Z,31.20
2022-08-25T13:55:27.740Z,31.10
2022-08-25T13:57:58.860Z,30.90
2022-08-25T14:00:32.442Z,30.80
2022-08-25T14:03:03.425Z,30.90
2022-08-25T14:05:43.872Z,31.10
2022-08-25T14:08:33.001Z,31.40
2022-08-25T14:11:14.652Z,31.50
2022-08-25T14:13:46.178Z,31.60
2022-08-25T14:16:23.080Z,31.60
2022-08-25T14:18:58.748Z,31.70
2022-08-25T14:21:30.155Z,31.40
2022-08-25T14:23:59.302Z,31.30
2022-08-25T14:26:29.905Z,31.30
2022-08-25T14:28:58.850Z,31.30
2022-08-25T14:31:30.645Z,31.50
2022-08-25T14:34:03.057Z,31.60
2022-08-25T14:36:32.433Z,31.70
2022-08-25T14:39:05.766Z,31.80
2022-08-25T14:41:40.821Z,31.80
2022-08-25T14:44:10.690Z,31.90
2022-08-25T14:46:42.788Z,32.00
2022-08-25T14:49:16.860Z,32.20
2022-08-25T14:51:53.478Z,32.40
2022-08-25T14:54:26.538Z,32.70
2022-08-25T14:56:57.375Z,32.60
2022-08-25T14:59:25.781Z,32.30
2022-08-25T15:01:56.380Z,31.80
2022-08-25T15:04:30.062Z,31.60
2022-08-25T15:08:08.608Z,31.70
2022-08-25T15:10:40.908Z,32.00
2022-08-25T15:13:10.961Z,31.90
2022-08-25T15:15:52.537Z,31.80
2022-08-25T15:18:21.914Z,31.80
2022-08-25T15:20:51.100Z,31.60
2022-08-25T15:23:20.224Z,31.40
2022-08-25T15:25:52.746Z,31.20
2022-08-25T15:28:23.311Z,31.10
2022-08-25T15:30:54.916Z,30.80
2022-08-25T15:33:23.857Z,30.80
2022-08-25T15:37:06.732Z,30.80
2022-08-25T15:39:34.918Z,30.60
2022-08-25T15:42:04.038Z,30.60
2022-08-25T15:44:36.018Z,30.60
2022-08-25T15:47:05.623Z,30.60
2022-08-25T15:49:34.818Z,30.50
2022-08-25T15:52:03.506Z,30.50
2022-08-25T15:54:32.173Z,30.40
2022-08-25T15:57:00.655Z,30.40
2022-08-25T15:59:35.199Z,30.30
2022-08-25T16:02:04.374Z,30.20
2022-08-25T16:04:36.146Z,30.10
2022-08-25T16:07:04.432Z,30.10
2022-08-25T16:09:32.670Z,30.20
2022-08-25T16:12:06.762Z,30.20
2022-08-25T16:14:38.832Z,30.20
2022-08-25T16:17:07.740Z,30.10
2022-08-25T16:19:38.259Z,30.10
2022-08-25T16:22:08.927Z,30.10
2022-08-25T16:24:40.955Z,30.10
2022-08-25T16:27:11.855Z,30.10
2022-08-25T16:29:43.832Z,30.10
2022-08-25T16:32:14.037Z,30.00
2022-08-25T16:34:46.894Z,29.90
2022-08-25T16:37:15.870Z,29.80
2022-08-25T16:39:46.106Z,29.70
2022-08-25T16:42:14.723Z,29.70
2022-08-25T16:44:44.699Z,29.70
2022-08-25T16:47:14.501Z,29.60
2022-08-25T16:49:46.531Z,29.60
2022-08-25T16:52:32.638Z,29.60
2022-08-25T16:55:21.224Z,29.60
2022-08-25T16:57:53.770Z,29.60
2022-08-25T17:00:25.915Z,29.60
2022-08-25T17:02:58.337Z,29.60
2022-08-25T17:05:27.594Z,29.60
2022-08-25T17:08:13.173Z,29.60
2022-08-25T17:10:43.861Z,29.60
2022-08-25T17:13:13.265Z,29.60
2022-08-25T17:15:46.762Z,29.50
2022-08-25T17:18:15.466Z,29.50
2022-08-25T17:20:45.330Z,29.50
2022-08-25T17:23:14.185Z,29.50
2022-08-25T17:25:43.717Z,29.50
2022-08-25T17:28:12.820Z,29.70
2022-08-25T17:30:43.634Z,29.90
2022-08-25T17:33:12.288Z,30.30
2022-08-25T17:35:41.356Z,30.60
2022-08-25T17:38:09.703Z,30.80
2022-08-25T17:40:38.247Z,31.10
2022-08-25T17:43:09.153Z,31.10
2022-08-25T17:45:39.089Z,31.00
2022-08-25T17:48:09.605Z,30.90
2022-08-25T17:50:39.060Z,30.90
2022-08-25T17:53:09.367Z,30.80
2022-08-25T17:55:38.163Z,30.60
2022-08-25T17:58:06.508Z,30.50
2022-08-25T18:00:38.871Z,30.20
2022-08-25T18:03:13.780Z,30.00
2022-08-25T18:05:42.209Z,29.60
2022-08-25T18:08:10.862Z,29.20
2022-08-25T18:10:39.448Z,28.90
2022-08-25T18:13:07.783Z,28.40
2022-08-25T18:15:36.310Z,28.00
2022-08-25T18:18:04.845Z,27.60
2022-08-25T18:20:35.127Z,27.30
2022-08-25T18:23:07.781Z,27.00
2022-08-25T18:25:41.679Z,26.70
2022-08-25T18:28:10.438Z,26.50
2022-08-25T18:30:40.466Z,26.30
2022-08-25T18:33:08.750Z,26.10
2022-08-25T18:35:38.873Z,26.00
2022-08-25T18:38:24.805Z,25.90
2022-08-25T18:40:56.825Z,25.70
2022-08-25T18:43:25.449Z,25.60
2022-08-25T18:45:54.878Z,25.50
2022-08-25T18:48:24.889Z,25.40
2022-08-25T18:50:57.068Z,25.30
2022-08-25T18:53:30.592Z,25.20
2022-08-25T18:56:06.248Z,25.10
2022-08-25T18:58:34.602Z,25.10
2022-08-25T19:01:05.711Z,25.10
2022-08-25T19:03:34.642Z,25.00
2022-08-25T19:06:04.966Z,24.90
2022-08-25T19:08:33.548Z,24.90
2022-08-25T19:11:01.762Z,24.70
2022-08-25T19:13:30.081Z,24.70
2022-08-25T19:15:58.598Z,24.60
2022-08-25T19:18:29.187Z,24.60
2022-08-25T19:20:59.261Z,24.40
2022-08-25T19:23:29.038Z,24.30
2022-08-25T19:25:57.221Z,24.20
2022-08-25T19:28:26.626Z,24.10
2022-08-25T19:30:54.848Z,24.00
2022-08-25T19:33:42.460Z,23.90
2022-08-25T19:36:11.405Z,23.80
2022-08-25T19:38:41.082Z,23.60
2022-08-25T19:41:14.304Z,23.50
2022-08-25T19:43:55.610Z,23.40
2022-08-25T19:46:33.241Z,23.30
2022-08-25T19:49:07.908Z,23.20
2022-08-25T19:51:38.456Z,23.10
2022-08-25T19:58:41.026Z,22.90
2022-08-25T20:01:11.520Z,22.70
2022-08-25T20:03:44.719Z,22.70
2022-08-25T20:06:15.889Z,22.60
2022-08-25T20:08:44.381Z,22.50
2022-08-25T20:11:13.796Z,22.40
2022-08-25T20:13:46.966Z,22.30
2022-08-25T20:16:17.324Z,22.30
2022-08-25T20:18:47.598Z,22.30
2022-08-25T20:21:15.841Z,22.30
2022-08-25T20:24:01.527Z,22.30
2022-08-25T20:26:30.334Z,22.20
2022-08-25T20:28:59.964Z,22.20
2022-08-25T20:31:28.364Z,22.20
2022-08-25T20:34:00.303Z,22.20
2022-08-25T20:36:31.719Z,22.20
2022-08-25T20:39:00.296Z,22.20
2022-08-25T20:41:28.794Z,22.10
2022-08-25T20:43:57.078Z,22.20
2022-08-25T20:46:27.692Z,22.20
2022-08-25T20:48:55.969Z,22.10
2022-08-25T20:51:25.469Z,22.00
2022-08-25T20:53:53.679Z,22.00
2022-08-25T20:56:22.980Z,21.90
2022-08-25T20:58:51.960Z,21.80
2022-08-25T21:01:23.252Z,21.80
2022-08-25T21:03:53.203Z,21.70
2022-08-25T21:06:21.435Z,21.70
2022-08-25T21:08:49.771Z,21.70
2022-08-25T21:11:19.418Z,21.60
2022-08-25T21:13:47.550Z,21.60
2022-08-25T21:16:17.786Z,21.50
2022-08-25T21:18:48.094Z,21.40
2022-08-25T21:21:18.140Z,21.30
2022-08-25T21:23:50.334Z,21.30
2022-08-25T21:26:22.895Z,21.20
2022-08-25T21:28:53.378Z,21.10
2022-08-25T21:31:22.267Z,21.10
2022-08-25T21:33:53.740Z,21.10
2022-08-25T21:36:24.780Z,21.10
2022-08-25T21:38:54.477Z,21.20
2022-08-25T21:41:25.458Z,21.20
2022-08-25T21:43:54.317Z,21.20
2022-08-25T21:46:24.775Z,21.20
2022-08-25T21:48:53.595Z,21.30
2022-08-25T21:51:25.314Z,21.20
2022-08-25T21:54:08.810Z,21.20
2022-08-25T21:56:38.969Z,21.20
2022-08-25T21:59:09.442Z,21.10
2022-08-25T22:01:38.619Z,21.10
2022-08-25T22:04:08.374Z,21.00
2022-08-25T22:06:38.063Z,21.00
2022-08-25T22:09:08.492Z,20.90
2022-08-25T22:11:37.366Z,20.80
2022-08-25T22:14:07.137Z,20.80
2022-08-25T22:16:36.755Z,20.70
2022-08-25T22:19:06.013Z,20.70
2022-08-25T22:21:34.478Z,20.70
2022-08-25T22:24:04.427Z,20.70
2022-08-25T22:26:34.499Z,20.70
2022-08-25T22:29:03.539Z,20.80
2022-08-25T22:31:32.954Z,20.80
2022-08-25T22:34:02.741Z,20.90
2022-08-25T22:36:33.861Z,20.90
2022-08-25T22:39:05.312Z,20.80
2022-08-25T22:41:34.487Z,20.80
2022-08-25T22:44:04.874Z,20.80
2022-08-25T22:46:33.705Z,20.80
2022-08-25T22:49:04.011Z,20.70
2022-08-25T22:51:32.257Z,20.70
2022-08-25T22:54:03.892Z,20.60
2022-08-25T22:56:35.255Z,20.60
2022-08-25T22:59:07.028Z,20.60
2022-08-25T23:01:36.194Z,20.50
2022-08-25T23:04:06.605Z,20.40
2022-08-25T23:06:34.790Z,20.40
2022-08-25T23:09:06.590Z,20.30
2022-08-25T23:11:35.629Z,20.30
2022-08-25T23:14:10.277Z,20.20
2022-08-25T23:16:39.008Z,20.10
2022-08-25T23:19:07.325Z,20.10
2022-08-25T23:21:53.386Z,20.00
2022-08-25T23:24:30.141Z,20.00
2022-08-25T23:26:59.230Z,19.90
2022-08-25T23:29:28.538Z,19.90
2022-08-25T23:31:57.377Z,19.80
2022-08-25T23:34:26.542Z,19.80
2022-08-25T23:36:55.776Z,19.80
2022-08-25T23:39:25.901Z,19.70
2022-08-25T23:41:54.389Z,19.70
2022-08-25T23:44:24.566Z,19.70
2022-08-25T23:46:55.769Z,19.60
2022-08-25T23:49:26.306Z,19.60
2022-08-25T23:51:55.567Z,19.60
2022-08-25T23:54:30.893Z,19.60
2022-08-25T23:56:59.777Z,19.60
2022-08-25T23:59:28.184Z,19.60
